createdAt,value
2019-05-07T00:00:19.255Z,100329.64
2019-05-07T00:05:24.624Z,100336.45
2019-05-07T00:10:29.802Z,100331.13
2019-05-07T00:15:34.853Z,100327.89
2019-05-07T00:20:42.138Z,100321.02
2019-05-07T00:25:46.691Z,100321.02
2019-05-07T00:30:52.183Z,100325.45
2019-05-07T00:36:15.638Z,100318.82
2019-05-07T00:41:45.637Z,100318.80
2019-05-07T00:46:52.503Z,100324.63
2019-05-07T00:51:57.992Z,100316.41
2019-05-07T00:57:03.324Z,100317.47
2019-05-07T01:02:08.383Z,100314.84
2019-05-07T01:07:13.454Z,100314.81
2019-05-07T01:12:18.892Z,100314.55
2019-05-07T01:17:23.912Z,100315.91
2019-05-07T01:22:29.064Z,100313.76
2019-05-07T01:27:37.229Z,100315.88
2019-05-07T01:32:48.599Z,100317.43
2019-05-07T01:37:54.717Z,100310.05
2019-05-07T01:42:59.795Z,100313.76
2019-05-07T01:48:04.890Z,100310.06
2019-05-07T01:53:12.122Z,100309.80
2019-05-07T01:58:16.689Z,100305.83
2019-05-07T02:03:32.813Z,100311.94
2019-05-07T02:08:53.326Z,100314.06
2019-05-07T02:13:58.442Z,100319.05
2019-05-07T02:19:03.485Z,100317.23
2019-05-07T02:24:08.608Z,100316.11
2019-05-07T02:29:14.087Z,100319.84
2019-05-07T02:34:19.184Z,100327.24
2019-05-07T02:39:33.320Z,100315.63
2019-05-07T02:44:56.881Z,100311.94
2019-05-07T02:50:08.352Z,100309.31
2019-05-07T02:55:23.504Z,100314.06
2019-05-07T03:00:28.919Z,100311.42
2019-05-07T03:05:34.828Z,100315.64
2019-05-07T03:10:43.424Z,100300.03
2019-05-07T03:15:49.014Z,100299.50
2019-05-07T03:20:58.529Z,100300.58
2019-05-07T03:26:24.464Z,100305.61
2019-05-07T03:31:57.575Z,100303.23
2019-05-07T03:37:06.099Z,100302.98
2019-05-07T03:42:12.761Z,100303.80
2019-05-07T03:47:19.499Z,100308.84
2019-05-07T03:52:24.772Z,100310.69
2019-05-07T03:57:33.026Z,100307.55
2019-05-07T04:02:36.732Z,100316.82
2019-05-07T04:07:42.969Z,100325.80
2019-05-07T04:12:48.574Z,100326.09
2019-05-07T04:17:53.858Z,100328.73
2019-05-07T04:22:58.963Z,100329.80
2019-05-07T04:28:23.608Z,100334.05
2019-05-07T04:33:33.561Z,100335.39
2019-05-07T04:38:39.544Z,100331.13
2019-05-07T04:43:54.263Z,100329.52
2019-05-07T04:48:59.464Z,100334.81
2019-05-07T04:54:04.485Z,100339.33
2019-05-07T04:59:09.785Z,100343.55
2019-05-07T05:04:25.606Z,100346.20
2019-05-07T05:09:23.310Z,100355.97
2019-05-07T05:14:28.960Z,100359.20
2019-05-07T05:19:33.998Z,100356.27
2019-05-07T05:24:42.959Z,100361.00
2019-05-07T05:29:48.978Z,100365.81
2019-05-07T05:34:54.088Z,100370.84
2019-05-07T05:40:08.059Z,100372.50
2019-05-07T05:45:27.406Z,100379.37
2019-05-07T05:50:37.415Z,100390.27
2019-05-07T05:55:42.996Z,100393.73
2019-05-07T06:01:13.197Z,100400.08
2019-05-07T06:06:32.813Z,100399.79
2019-05-07T06:11:55.629Z,100402.42
2019-05-07T06:17:16.029Z,100403.19
2019-05-07T06:22:47.171Z,100419.27
2019-05-07T06:27:52.662Z,100418.70
2019-05-07T06:32:57.886Z,100426.31
2019-05-07T06:38:04.928Z,100436.30
2019-05-07T06:43:32.660Z,100437.03
2019-05-07T06:48:42.811Z,100443.68
2019-05-07T06:53:44.804Z,100457.00
2019-05-07T06:59:02.079Z,100460.16
2019-05-07T07:04:28.285Z,100463.38
2019-05-07T07:09:48.907Z,100462.33
2019-05-07T07:14:58.199Z,100466.02
2019-05-07T07:20:06.193Z,100454.91
2019-05-07T07:25:11.909Z,100446.40
2019-05-07T07:30:32.715Z,100445.26
2019-05-07T07:35:38.917Z,100448.13
2019-05-07T07:40:46.455Z,100448.53
2019-05-07T07:45:52.593Z,100445.26
2019-05-07T07:50:57.740Z,100445.75
2019-05-07T07:56:20.329Z,100452.15
2019-05-07T08:01:47.395Z,100454.39
2019-05-07T08:07:03.204Z,100460.05
2019-05-07T08:12:09.405Z,100460.68
2019-05-07T08:17:14.517Z,100458.33
2019-05-07T08:22:19.847Z,100467.11
2019-05-07T08:27:24.945Z,100465.78
2019-05-07T08:32:49.052Z,100460.72
2019-05-07T08:37:54.101Z,100463.63
2019-05-07T08:42:59.559Z,100466.83
2019-05-07T08:48:08.148Z,100469.02
2019-05-07T08:53:13.882Z,100462.47
2019-05-07T08:58:19.041Z,100465.39
2019-05-07T09:03:43.621Z,100455.86
2019-05-07T09:08:48.810Z,100449.23
2019-05-07T09:13:54.322Z,100440.24
2019-05-07T09:18:59.427Z,100430.97
2019-05-07T09:24:06.103Z,100433.63
2019-05-07T09:29:17.205Z,100430.42
2019-05-07T09:34:23.438Z,100428.86
2019-05-07T09:39:29.238Z,100428.59
2019-05-07T09:44:34.292Z,100430.17
2019-05-07T09:49:39.350Z,100424.58
2019-05-07T09:54:44.414Z,100424.80
2019-05-07T09:59:49.442Z,100420.31
2019-05-07T10:04:54.536Z,100411.00
2019-05-07T10:10:02.930Z,100408.65
2019-05-07T10:15:08.275Z,100402.06
2019-05-07T10:20:21.627Z,100397.30
2019-05-07T10:25:22.400Z,100398.44
2019-05-07T10:30:27.232Z,100389.25
2019-05-07T10:35:33.741Z,100383.97
2019-05-07T10:40:38.832Z,100388.77
2019-05-07T10:46:09.044Z,100381.48
2019-05-07T10:51:14.308Z,100380.97
2019-05-07T10:56:19.414Z,100377.31
2019-05-07T11:01:32.908Z,100378.95
2019-05-07T11:06:38.036Z,100376.86
2019-05-07T11:11:43.132Z,100372.61
2019-05-07T11:17:11.848Z,100361.98
2019-05-07T11:22:17.128Z,100366.45
2019-05-07T11:27:22.564Z,100362.10
2019-05-07T11:32:32.031Z,100357.59
2019-05-07T11:37:36.985Z,100350.59
2019-05-07T11:43:02.509Z,100342.46
2019-05-07T11:48:07.912Z,100345.86
2019-05-07T11:53:13.671Z,100336.55
2019-05-07T11:58:19.059Z,100333.36
2019-05-07T12:03:24.163Z,100331.45
2019-05-07T12:08:40.918Z,100330.86
2019-05-07T12:13:36.335Z,100326.58
2019-05-07T12:18:43.071Z,100321.38
2019-05-07T12:23:48.313Z,100321.03
2019-05-07T12:28:54.490Z,100309.70
2019-05-07T12:34:09.279Z,100308.49
2019-05-07T12:39:14.426Z,100310.63
2019-05-07T12:44:22.132Z,100314.95
2019-05-07T12:49:27.036Z,100304.86
2019-05-07T12:54:37.892Z,100306.40
2019-05-07T12:59:43.058Z,100297.38
2019-05-07T13:04:48.092Z,100296.91
2019-05-07T13:09:53.992Z,100288.94
2019-05-07T13:14:59.066Z,100284.95
2019-05-07T13:20:04.470Z,100290.90
2019-05-07T13:25:09.574Z,100278.44
2019-05-07T13:30:14.775Z,100272.66
2019-05-07T13:35:19.884Z,100272.38
2019-05-07T13:40:52.606Z,100271.78
2019-05-07T13:46:07.002Z,100269.04
2019-05-07T13:51:12.871Z,100261.86
2019-05-07T13:56:16.903Z,100247.47
2019-05-07T14:01:36.956Z,100248.44
2019-05-07T14:06:42.993Z,100245.80
2019-05-07T14:11:48.336Z,100234.62
2019-05-07T14:16:53.367Z,100224.38
2019-05-07T14:21:58.372Z,100233.02
2019-05-07T14:27:03.408Z,100229.28
2019-05-07T14:32:18.946Z,100227.59
2019-05-07T14:37:34.243Z,100226.25
2019-05-07T14:42:44.450Z,100223.13
2019-05-07T14:47:49.512Z,100222.37
2019-05-07T14:52:55.243Z,100224.75
2019-05-07T14:58:01.930Z,100225.30
2019-05-07T15:03:08.274Z,100225.17
2019-05-07T15:08:14.415Z,100220.81
2019-05-07T15:13:21.802Z,100231.88
2019-05-07T15:18:46.052Z,100227.41
2019-05-07T15:23:52.979Z,100229.84
2019-05-07T15:29:16.744Z,100228.44
2019-05-07T15:34:22.168Z,100221.70
2019-05-07T15:39:27.482Z,100214.80
2019-05-07T15:44:32.576Z,100213.35
2019-05-07T15:49:37.668Z,100217.48
2019-05-07T15:54:43.121Z,100216.70
2019-05-07T15:59:52.067Z,100209.50
2019-05-07T16:04:57.463Z,100209.50
2019-05-07T16:10:03.043Z,100208.77
2019-05-07T16:15:08.193Z,100204.25
2019-05-07T16:20:14.944Z,100204.22
2019-05-07T16:25:22.340Z,100197.19
2019-05-07T16:30:26.782Z,100195.05
2019-05-07T16:35:32.222Z,100196.45
2019-05-07T16:40:37.620Z,100196.53
2019-05-07T16:45:42.711Z,100192.50
2019-05-07T16:50:48.132Z,100190.91
2019-05-07T16:55:53.246Z,100187.28
2019-05-07T17:01:02.303Z,100193.68
2019-05-07T17:06:07.319Z,100187.03
2019-05-07T17:11:12.417Z,100181.96
2019-05-07T17:16:17.544Z,100188.36
2019-05-07T17:21:22.571Z,100186.22
2019-05-07T17:26:27.976Z,100185.73
2019-05-07T17:31:33.221Z,100175.34
2019-05-07T17:36:38.312Z,100179.82
2019-05-07T17:41:43.384Z,100181.96
2019-05-07T17:46:48.470Z,100179.82
2019-05-07T17:51:53.476Z,100171.91
2019-05-07T17:56:58.496Z,100174.83
2019-05-07T18:02:26.171Z,100174.38
2019-05-07T18:07:31.464Z,100175.23
2019-05-07T18:12:36.941Z,100169.39
2019-05-07T18:17:50.952Z,100179.27
2019-05-07T18:22:55.998Z,100179.04
2019-05-07T18:28:01.803Z,100175.59
2019-05-07T18:33:27.953Z,100178.30
2019-05-07T18:38:33.123Z,100172.45
2019-05-07T18:43:38.754Z,100170.05
2019-05-07T18:48:43.779Z,100169.09
2019-05-07T18:53:49.212Z,100170.45
2019-05-07T18:58:54.550Z,100172.63
2019-05-07T19:04:02.091Z,100177.98
2019-05-07T19:09:08.763Z,100176.14
2019-05-07T19:14:19.387Z,100174.58
2019-05-07T19:19:25.043Z,100175.42
2019-05-07T19:24:44.190Z,100181.56
2019-05-07T19:29:42.324Z,100173.61
2019-05-07T19:34:45.761Z,100173.91
2019-05-07T19:39:52.342Z,100174.97
2019-05-07T19:44:57.913Z,100175.52
2019-05-07T19:50:03.409Z,100168.39
2019-05-07T19:55:17.508Z,100165.50
2019-05-07T20:00:24.359Z,100159.44
2019-05-07T20:05:32.159Z,100154.19
2019-05-07T20:10:43.764Z,100154.77
2019-05-07T20:15:54.112Z,100143.67
2019-05-07T20:20:59.383Z,100143.16
2019-05-07T20:26:04.625Z,100143.45
2019-05-07T20:31:11.644Z,100140.00
2019-05-07T20:36:16.753Z,100138.45
2019-05-07T20:41:23.231Z,100137.16
2019-05-07T20:46:28.520Z,100133.16
2019-05-07T20:51:33.638Z,100129.76
2019-05-07T20:56:42.014Z,100125.05
2019-05-07T21:01:47.216Z,100126.96
2019-05-07T21:06:52.694Z,100120.38
2019-05-07T21:11:58.908Z,100121.23
2019-05-07T21:17:04.000Z,100114.36
2019-05-07T21:22:08.962Z,100111.53
2019-05-07T21:27:14.108Z,100102.27
2019-05-07T21:32:19.179Z,100105.15
2019-05-07T21:37:24.274Z,100101.48
2019-05-07T21:42:31.975Z,100102.55
2019-05-07T21:47:36.233Z,100100.16
2019-05-07T21:52:43.555Z,100110.49
2019-05-07T21:58:07.076Z,100107.03
2019-05-07T22:03:14.952Z,100093.72
2019-05-07T22:08:21.910Z,100092.13
2019-05-07T22:13:28.364Z,100086.30
2019-05-07T22:18:33.963Z,100090.28
2019-05-07T22:23:39.116Z,100086.27
2019-05-07T22:28:44.149Z,100087.05
2019-05-07T22:33:59.370Z,100083.35
2019-05-07T22:39:05.008Z,100069.29
2019-05-07T22:44:12.110Z,100073.30
2019-05-07T22:49:17.316Z,100065.08
2019-05-07T22:54:22.709Z,100051.83
2019-05-07T22:59:27.780Z,100044.95
2019-05-07T23:04:39.175Z,100031.73
2019-05-07T23:09:44.898Z,100024.06
2019-05-07T23:14:51.454Z,100013.95
2019-05-07T23:19:56.845Z,100005.21
2019-05-07T23:25:01.948Z,100005.79
2019-05-07T23:30:07.019Z,100000.77
2019-05-07T23:35:12.784Z,99990.76
2019-05-07T23:40:30.876Z,99989.75
2019-05-07T23:45:35.886Z,99994.56
2019-05-07T23:50:41.879Z,99987.96
2019-05-07T23:55:46.978Z,99976.59
